Аэропорт: Сокол. Магадан

ICAO: UHMM

METAR:
2024-04-22 21:30:00
UHMM 222130Z 00000MPS 9999 NSC M00/M07 Q1018 R10/81//65 NOSIG RMK QFE748 R28/00000MPS
TAF:
2024-04-22 19:54:00
TAF UHMM 221954Z 2221/2403 24003G08MPS 9999 NSC